Wetterdaten: Woche 31.05.10 - 06.06.10 (KW22)
Datum Zeit Temp. Innen Temp. Aussen UV X Diff Temp. Feuchte Inne Feuchte Auss Sonnenschein Luftdruck Regen ab 0,1 Wind Sonnenschein Windben
31.05.2010 00:00 19,0 C 9,6 C 0,0 UV-I 0,0 C 54 % 85 % 0 % 1009,8 hPa 0,2 l/m 3,3 km/h (1 Bft) 0,00 h 5,1 km/h (1 Bft)
31.05.2010 01:00 18,9 C 9,3 C 0,0 UV-I 0,0 C 55 % 89 % 0 % 1009,6 hPa 0,2 l/m 3,7 km/h (1 Bft) 0,00 h 3,4 km/h (1 Bft)
31.05.2010 02:00 18,8 C 9,2 C 0,0 UV-I 0,0 C 55 % 90 % 0 % 1009,7 hPa 0,1 l/m 2,3 km/h (1 Bft) 0,00 h 3,4 km/h (1 Bft)
31.05.2010 03:00 18,6 C 9,4 C 0,0 UV-I 0,0 C 55 % 91 % 0 % 1009,5 hPa 0,0 l/m 3,2 km/h (1 Bft) 0,00 h 5,5 km/h (1 Bft)
31.05.2010 04:00 18,5 C 9,5 C 0,0 UV-I 0,0 C 56 % 93 % 0 % 1009,6 hPa 0,3 l/m 3,9 km/h (1 Bft) 0,00 h 4,5 km/h (1 Bft)
31.05.2010 05:00 18,5 C 9,7 C 0,0 UV-I 0,0 C 57 % 94 % 0 % 1009,8 hPa 0,0 l/m 4,9 km/h (1 Bft) 0,00 h 5,8 km/h (2 Bft)
31.05.2010 06:00 18,5 C 9,9 C 0,0 UV-I 0,0 C 57 % 94 % 0 % 1010,3 hPa 0,5 l/m 1,6 km/h (1 Bft) 0,00 h 2,2 km/h (1 Bft)
31.05.2010 07:00 18,5 C 10,5 C 0,4 UV-I 0,1 C 58 % 94 % 4 % 1011,0 hPa 0,0 l/m 3,4 km/h (1 Bft) 0,00 h 4,3 km/h (1 Bft)
31.05.2010 08:00 18,6 C 11,3 C 0,8 UV-I 0,7 C 58 % 93 % 20 % 1011,7 hPa 0,0 l/m 3,6 km/h (1 Bft) 0,00 h 4,5 km/h (1 Bft)
31.05.2010 09:00 18,8 C 12,0 C 1,3 UV-I 1,0 C 58 % 91 % 27 % 1012,6 hPa 0,0 l/m 3,2 km/h (1 Bft) 0,00 h 5,0 km/h (1 Bft)
31.05.2010 10:00 19,0 C 12,9 C 1,8 UV-I 1,4 C 57 % 86 % 40 % 1013,3 hPa 0,0 l/m 4,9 km/h (1 Bft) 0,00 h 7,1 km/h (2 Bft)
31.05.2010 11:00 19,0 C 13,3 C 1,8 UV-I 1,3 C 57 % 83 % 38 % 1014,1 hPa 0,0 l/m 4,8 km/h (1 Bft) 0,00 h 6,2 km/h (2 Bft)
31.05.2010 12:00 19,2 C 14,4 C 4,4 UV-I 2,6 C 57 % 78 % 73 % 1014,5 hPa 0,0 l/m 6,9 km/h (2 Bft) 0,37 h 8,5 km/h (2 Bft)
31.05.2010 13:00 19,4 C 14,9 C 2,0 UV-I 1,5 C 56 % 76 % 42 % 1015,0 hPa 0,0 l/m 5,0 km/h (1 Bft) 0,00 h 6,8 km/h (2 Bft)
31.05.2010 14:00 19,3 C 14,4 C 0,3 UV-I 0,3 C 56 % 80 % 8 % 1015,0 hPa 0,0 l/m 3,4 km/h (1 Bft) 0,00 h 3,8 km/h (1 Bft)
31.05.2010 15:00 19,2 C 13,8 C 0,5 UV-I 0,0 C 57 % 87 % 0 % 1015,3 hPa 0,6 l/m 3,4 km/h (1 Bft) 0,00 h 3,0 km/h (1 Bft)
31.05.2010 16:00 19,2 C 13,3 C 0,1 UV-I 0,0 C 59 % 91 % 0 % 1015,7 hPa 2,0 l/m 5,4 km/h (1 Bft) 0,00 h 6,4 km/h (2 Bft)
31.05.2010 17:00 19,2 C 13,5 C 1,6 UV-I 0,8 C 59 % 92 % 24 % 1016,1 hPa 0,0 l/m 4,2 km/h (1 Bft) 0,00 h 5,7 km/h (1 Bft)
31.05.2010 18:00 19,2 C 13,7 C 0,3 UV-I 0,6 C 61 % 91 % 16 % 1016,4 hPa 0,1 l/m 3,3 km/h (1 Bft) 0,00 h 4,3 km/h (1 Bft)
31.05.2010 19:00 19,2 C 13,5 C 0,0 UV-I 0,0 C 62 % 92 % 0 % 1016,8 hPa 0,5 l/m 1,6 km/h (1 Bft) 0,00 h 2,5 km/h (1 Bft)
31.05.2010 20:00 19,1 C 13,2 C 0,0 UV-I 0,0 C 63 % 93 % 0 % 1017,5 hPa 0,1 l/m 0,8 km/h (0 Bft) 0,00 h 1,2 km/h (1 Bft)
31.05.2010 21:00 19,0 C 13,1 C 0,0 UV-I 0,0 C 63 % 93 % 0 % 1017,8 hPa 0,0 l/m 0,5 km/h (0 Bft) 0,00 h 0,7 km/h (0 Bft)
31.05.2010 22:00 18,8 C 13,1 C 0,0 UV-I 0,0 C 65 % 94 % 0 % 1018,5 hPa 1,5 l/m 0,0 km/h (0 Bft) 0,00 h 0,1 km/h (0 Bft)
31.05.2010 23:00 18,8 C 13,0 C 0,0 UV-I 0,0 C 65 % 94 % 0 % 1018,7 hPa 3,8 l/m 0,3 km/h (0 Bft) 0,00 h 0,5 km/h (0 Bft)
01.06.2010 00:00 18,7 C 12,9 C 0,0 UV-I 0,0 C 66 % 95 % 0 % 1018,3 hPa 0,2 l/m 0,7 km/h (0 Bft) 0,00 h 0,9 km/h (0 Bft)
01.06.2010 01:00 18,6 C 12,5 C 0,0 UV-I 0,0 C 66 % 94 % 0 % 1018,1 hPa 0,0 l/m 0,5 km/h (0 Bft) 0,00 h 0,3 km/h (0 Bft)
01.06.2010 02:00 18,5 C 11,9 C 0,0 UV-I 0,0 C 65 % 94 % 0 % 1017,9 hPa 0,0 l/m 0,1 km/h (0 Bft) 0,00 h 0,0 km/h (0 Bft)
01.06.2010 03:00 18,4 C 11,1 C 0,0 UV-I 0,0 C 63 % 94 % 0 % 1017,5 hPa 0,0 l/m 0,0 km/h (0 Bft) 0,00 h 0,1 km/h (0 Bft)
01.06.2010 04:00 18,1 C 10,4 C 0,0 UV-I 0,0 C 63 % 95 % 0 % 1017,5 hPa 0,0 l/m 0,1 km/h (0 Bft) 0,00 h 0,0 km/h (0 Bft)
01.06.2010 05:00 18,0 C 10,3 C 0,0 UV-I 0,0 C 63 % 95 % 0 % 1017,9 hPa 0,1 l/m 0,4 km/h (0 Bft) 0,00 h 0,2 km/h (0 Bft)
01.06.2010 06:00 18,0 C 10,3 C 0,0 UV-I 0,1 C 63 % 95 % 2 % 1018,2 hPa 0,0 l/m 0,6 km/h (0 Bft) 0,00 h 0,8 km/h (0 Bft)
01.06.2010 07:00 18,0 C 10,4 C 0,3 UV-I 0,6 C 62 % 96 % 16 % 1018,7 hPa 0,0 l/m 1,7 km/h (1 Bft) 0,00 h 2,6 km/h (1 Bft)
01.06.2010 08:00 18,0 C 10,5 C 0,9 UV-I 0,9 C 62 % 95 % 26 % 1018,4 hPa 0,0 l/m 2,2 km/h (1 Bft) 0,00 h 3,3 km/h (1 Bft)
01.06.2010 09:00 18,1 C 11,1 C 1,7 UV-I 1,9 C 62 % 96 % 53 % 1018,0 hPa 0,0 l/m 1,2 km/h (1 Bft) 0,00 h 1,4 km/h (1 Bft)
01.06.2010 10:00 18,3 C 11,8 C 2,4 UV-I 2,0 C 61 % 93 % 57 % 1018,0 hPa 0,0 l/m 2,0 km/h (1 Bft) 0,00 h 2,5 km/h (1 Bft)
01.06.2010 11:00 18,7 C 12,9 C 4,3 UV-I 3,5 C 60 % 89 % 95 % 1017,9 hPa 0,0 l/m 2,0 km/h (1 Bft) 0,83 h 2,4 km/h (1 Bft)
01.06.2010 12:00 19,3 C 14,5 C 7,7 UV-I 6,3 C 59 % 84 % 100 % 1017,9 hPa 0,0 l/m 2,0 km/h (1 Bft) 0,93 h 2,7 km/h (1 Bft)
01.06.2010 13:00 19,9 C 16,5 C 8,9 UV-I 6,5 C 58 % 77 % 100 % 1018,2 hPa 0,0 l/m 3,7 km/h (1 Bft) 0,97 h 4,9 km/h (1 Bft)
01.06.2010 14:00 20,7 C 17,7 C 8,3 UV-I 5,2 C 56 % 71 % 99 % 1018,0 hPa 0,0 l/m 4,8 km/h (1 Bft) 0,78 h 6,5 km/h (2 Bft)
01.06.2010 15:00 22,1 C 19,4 C 9,0 UV-I 5,6 C 52 % 62 % 100 % 1018,9 hPa 0,0 l/m 5,1 km/h (1 Bft) 1,00 h 5,8 km/h (2 Bft)
01.06.2010 16:00 22,5 C 19,2 C 5,7 UV-I 3,1 C 50 % 59 % 81 % 1018,4 hPa 0,0 l/m 5,1 km/h (1 Bft) 0,57 h 6,3 km/h (2 Bft)
01.06.2010 17:00 21,9 C 18,7 C 3,4 UV-I 1,5 C 51 % 60 % 42 % 1017,2 hPa 0,0 l/m 4,7 km/h (1 Bft) 0,00 h 5,0 km/h (1 Bft)
01.06.2010 18:00 21,6 C 18,6 C 2,3 UV-I 1,4 C 52 % 62 % 41 % 1016,7 hPa 0,0 l/m 5,8 km/h (2 Bft) 0,10 h 6,1 km/h (2 Bft)
01.06.2010 19:00 21,3 C 18,0 C 0,7 UV-I 0,0 C 52 % 64 % 0 % 1016,2 hPa 0,0 l/m 4,1 km/h (1 Bft) 0,00 h 4,2 km/h (1 Bft)
01.06.2010 20:00 20,9 C 17,4 C 0,1 UV-I 0,0 C 53 % 65 % 0 % 1016,2 hPa 0,0 l/m 1,8 km/h (1 Bft) 0,00 h 2,4 km/h (1 Bft)
01.06.2010 21:00 20,5 C 16,2 C 0,0 UV-I 0,0 C 54 % 70 % 0 % 1016,3 hPa 0,0 l/m 0,3 km/h (0 Bft) 0,00 h 0,1 km/h (0 Bft)
01.06.2010 22:00 20,2 C 15,0 C 0,0 UV-I 0,0 C 54 % 72 % 0 % 1016,8 hPa 0,0 l/m 0,2 km/h (0 Bft) 0,00 h 0,6 km/h (0 Bft)
01.06.2010 23:00 20,0 C 14,2 C 0,0 UV-I 0,0 C 54 % 74 % 0 % 1017,0 hPa 0,0 l/m 1,1 km/h (0 Bft) 0,00 h 1,4 km/h (1 Bft)
02.06.2010 00:00 19,7 C 13,4 C 0,0 UV-I 0,0 C 56 % 81 % 0 % 1016,8 hPa 0,0 l/m 0,3 km/h (0 Bft) 0,00 h 0,6 km/h (0 Bft)
02.06.2010 01:00 19,6 C 12,7 C 0,0 UV-I 0,0 C 57 % 85 % 0 % 1016,9 hPa 0,0 l/m 0,9 km/h (0 Bft) 0,00 h 2,0 km/h (1 Bft)
02.06.2010 02:00 19,3 C 12,1 C 0,0 UV-I 0,0 C 57 % 86 % 0 % 1016,9 hPa 0,0 l/m 0,2 km/h (0 Bft) 0,00 h 0,1 km/h (0 Bft)
02.06.2010 03:00 19,0 C 11,2 C 0,0 UV-I 0,0 C 58 % 88 % 0 % 1016,9 hPa 0,0 l/m 0,0 km/h (0 Bft) 0,00 h 0,3 km/h (0 Bft)
02.06.2010 04:00 18,7 C 10,5 C 0,0 UV-I 0,0 C 58 % 90 % 0 % 1017,0 hPa 0,0 l/m 0,1 km/h (0 Bft) 0,00 h 0,2 km/h (0 Bft)
02.06.2010 05:00 18,4 C 9,7 C 0,0 UV-I 0,0 C 58 % 91 % 0 % 1017,2 hPa 0,0 l/m 0,0 km/h (0 Bft) 0,00 h 0,0 km/h (0 Bft)
02.06.2010 06:00 18,3 C 9,8 C 0,0 UV-I 0,0 C 58 % 93 % 0 % 1017,5 hPa 0,0 l/m 0,4 km/h (0 Bft) 0,00 h 0,7 km/h (0 Bft)
02.06.2010 07:00 18,2 C 11,3 C 0,8 UV-I 0,0 C 58 % 89 % 0 % 1018,0 hPa 0,0 l/m 2,7 km/h (1 Bft) 0,00 h 4,0 km/h (1 Bft)
02.06.2010 08:00 18,3 C 13,5 C 3,5 UV-I 4,5 C 57 % 77 % 78 % 1018,2 hPa 0,0 l/m 7,4 km/h (2 Bft) 0,70 h 9,7 km/h (2 Bft)
02.06.2010 09:00 18,6 C 15,8 C 12,1 UV-I 6,6 C 57 % 67 % 100 % 1018,6 hPa 0,0 l/m 7,8 km/h (2 Bft) 0,90 h 9,6 km/h (2 Bft)
02.06.2010 10:00 18,9 C 17,6 C 15,2 UV-I 6,1 C 55 % 59 % 100 % 1018,7 hPa 0,0 l/m 11,7 km/h (2 Bft) 1,00 h 13,8 km/h (3 Bft)
02.06.2010 11:00 19,1 C 18,9 C 11,7 UV-I 5,1 C 55 % 56 % 100 % 1019,2 hPa 0,0 l/m 13,8 km/h (3 Bft) 0,90 h 16,1 km/h (3 Bft)
02.06.2010 12:00 19,5 C 20,0 C 7,6 UV-I 4,4 C 57 % 51 % 100 % 1019,4 hPa 0,0 l/m 14,8 km/h (3 Bft) 0,93 h 15,0 km/h (3 Bft)
02.06.2010 13:00 20,3 C 20,9 C 7,5 UV-I 3,7 C 56 % 46 % 100 % 1019,7 hPa 0,0 l/m 17,1 km/h (3 Bft) 0,93 h 16,5 km/h (3 Bft)
02.06.2010 14:00 21,3 C 21,1 C 8,1 UV-I 3,2 C 53 % 48 % 90 % 1020,5 hPa 0,0 l/m 17,2 km/h (3 Bft) 0,63 h 18,3 km/h (3 Bft)
02.06.2010 15:00 22,6 C 21,2 C 7,4 UV-I 3,3 C 50 % 52 % 86 % 1021,9 hPa 0,0 l/m 14,1 km/h (3 Bft) 0,53 h 15,5 km/h (3 Bft)
02.06.2010 16:00 22,6 C 20,8 C 4,6 UV-I 2,2 C 50 % 55 % 63 % 1021,4 hPa 0,0 l/m 11,8 km/h (2 Bft) 0,07 h 11,9 km/h (2 Bft)
02.06.2010 17:00 22,4 C 20,6 C 3,9 UV-I 1,8 C 51 % 57 % 51 % 1021,1 hPa 0,0 l/m 10,6 km/h (2 Bft) 0,00 h 9,8 km/h (2 Bft)
02.06.2010 18:00 22,4 C 20,5 C 3,0 UV-I 1,5 C 51 % 59 % 42 % 1021,1 hPa 0,0 l/m 9,5 km/h (2 Bft) 0,00 h 11,3 km/h (2 Bft)
02.06.2010 19:00 22,1 C 20,0 C 0,6 UV-I 0,1 C 51 % 62 % 3 % 1021,2 hPa 0,0 l/m 11,2 km/h (2 Bft) 0,00 h 11,2 km/h (2 Bft)
02.06.2010 20:00 21,7 C 19,4 C 0,2 UV-I 0,0 C 53 % 65 % 0 % 1021,3 hPa 0,0 l/m 9,4 km/h (2 Bft) 0,00 h 10,3 km/h (2 Bft)
02.06.2010 21:00 21,3 C 18,5 C 0,0 UV-I 0,0 C 54 % 68 % 0 % 1021,6 hPa 0,0 l/m 10,2 km/h (2 Bft) 0,00 h 10,0 km/h (2 Bft)
02.06.2010 22:00 21,0 C 17,2 C 0,0 UV-I 0,0 C 55 % 73 % 0 % 1021,9 hPa 0,0 l/m 3,5 km/h (1 Bft) 0,00 h 2,8 km/h (1 Bft)
02.06.2010 23:00 20,7 C 16,0 C 0,0 UV-I 0,0 C 56 % 75 % 0 % 1022,0 hPa 0,0 l/m 1,4 km/h (1 Bft) 0,00 h 2,1 km/h (1 Bft)
03.06.2010 00:00 20,3 C 15,2 C 0,0 UV-I 0,0 C 55 % 75 % 0 % 1021,9 hPa 0,0 l/m 4,5 km/h (1 Bft) 0,00 h 5,6 km/h (1 Bft)
03.06.2010 01:00 20,0 C 14,1 C 0,0 UV-I 0,0 C 54 % 75 % 0 % 1022,0 hPa 0,0 l/m 2,5 km/h (1 Bft) 0,00 h 3,8 km/h (1 Bft)
03.06.2010 02:00 19,6 C 12,8 C 0,0 UV-I 0,0 C 54 % 77 % 0 % 1022,1 hPa 0,0 l/m 0,5 km/h (0 Bft) 0,00 h 0,9 km/h (0 Bft)
03.06.2010 03:00 19,2 C 11,6 C 0,0 UV-I 0,0 C 54 % 82 % 0 % 1022,2 hPa 0,0 l/m 0,1 km/h (0 Bft) 0,00 h 0,2 km/h (0 Bft)
03.06.2010 04:00 18,8 C 10,8 C 0,0 UV-I 0,0 C 54 % 84 % 0 % 1022,3 hPa 0,0 l/m 0,7 km/h (0 Bft) 0,00 h 1,8 km/h (1 Bft)
03.06.2010 05:00 18,5 C 10,4 C 0,0 UV-I 0,0 C 54 % 85 % 0 % 1022,0 hPa 0,0 l/m 1,3 km/h (1 Bft) 0,00 h 2,1 km/h (1 Bft)
03.06.2010 06:00 18,2 C 10,6 C 0,4 UV-I 0,0 C 54 % 85 % 0 % 1022,1 hPa 0,0 l/m 6,2 km/h (2 Bft) 0,00 h 8,2 km/h (2 Bft)
03.06.2010 07:00 18,2 C 11,6 C 1,1 UV-I 0,0 C 56 % 83 % 0 % 1022,7 hPa 0,0 l/m 6,5 km/h (2 Bft) 0,00 h 6,3 km/h (2 Bft)
03.06.2010 08:00 18,4 C 13,4 C 3,5 UV-I 5,1 C 56 % 77 % 88 % 1022,8 hPa 0,0 l/m 6,9 km/h (2 Bft) 0,73 h 8,0 km/h (2 Bft)
03.06.2010 09:00 18,7 C 15,6 C 12,5 UV-I 6,8 C 56 % 70 % 100 % 1022,9 hPa 0,0 l/m 7,1 km/h (2 Bft) 1,00 h 7,2 km/h (2 Bft)
03.06.2010 10:00 19,0 C 17,3 C 14,8 UV-I 6,4 C 56 % 65 % 100 % 1023,0 hPa 0,0 l/m 9,3 km/h (2 Bft) 1,00 h 10,9 km/h (2 Bft)
03.06.2010 11:00 19,3 C 19,2 C 12,0 UV-I 5,9 C 56 % 59 % 100 % 1023,2 hPa 0,0 l/m 9,4 km/h (2 Bft) 1,00 h 12,3 km/h (3 Bft)
03.06.2010 12:00 19,8 C 20,8 C 8,1 UV-I 5,1 C 55 % 55 % 100 % 1023,2 hPa 0,0 l/m 10,8 km/h (2 Bft) 1,00 h 11,2 km/h (2 Bft)
03.06.2010 13:00 20,5 C 22,0 C 7,7 UV-I 4,3 C 54 % 51 % 100 % 1023,1 hPa 0,0 l/m 12,7 km/h (3 Bft) 1,00 h 15,9 km/h (3 Bft)
03.06.2010 14:00 21,7 C 23,0 C 8,0 UV-I 4,0 C 52 % 46 % 100 % 1023,2 hPa 0,0 l/m 13,2 km/h (3 Bft) 1,00 h 15,1 km/h (3 Bft)
03.06.2010 15:00 23,6 C 23,6 C 8,5 UV-I 3,9 C 47 % 44 % 100 % 1024,8 hPa 0,0 l/m 12,4 km/h (3 Bft) 1,00 h 12,9 km/h (3 Bft)
03.06.2010 16:00 25,0 C 23,9 C 10,4 UV-I 3,8 C 43 % 40 % 100 % 1025,6 hPa 0,0 l/m 12,6 km/h (3 Bft) 1,00 h 14,1 km/h (3 Bft)
03.06.2010 17:00 25,5 C 24,1 C 10,3 UV-I 3,7 C 42 % 39 % 100 % 1024,8 hPa 0,0 l/m 12,1 km/h (2 Bft) 0,97 h 12,6 km/h (3 Bft)
03.06.2010 18:00 24,8 C 23,3 C 3,8 UV-I 1,8 C 42 % 39 % 51 % 1023,3 hPa 0,0 l/m 12,5 km/h (3 Bft) 0,33 h 13,1 km/h (3 Bft)
03.06.2010 19:00 23,7 C 22,9 C 2,1 UV-I 0,0 C 44 % 42 % 0 % 1021,7 hPa 0,0 l/m 10,9 km/h (2 Bft) 0,00 h 10,4 km/h (2 Bft)
03.06.2010 20:00 23,1 C 22,1 C 0,5 UV-I 0,0 C 46 % 45 % 0 % 1021,4 hPa 0,0 l/m 9,5 km/h (2 Bft) 0,00 h 10,2 km/h (2 Bft)
03.06.2010 21:00 22,7 C 20,6 C 0,0 UV-I 0,0 C 47 % 51 % 0 % 1021,1 hPa 0,0 l/m 6,5 km/h (2 Bft) 0,00 h 6,2 km/h (2 Bft)
03.06.2010 22:00 22,1 C 18,8 C 0,0 UV-I 0,0 C 48 % 58 % 0 % 1021,3 hPa 0,0 l/m 4,3 km/h (1 Bft) 0,00 h 4,1 km/h (1 Bft)
03.06.2010 23:00 21,8 C 17,4 C 0,0 UV-I 0,0 C 50 % 63 % 0 % 1021,3 hPa 0,0 l/m 5,6 km/h (1 Bft) 0,00 h 6,5 km/h (2 Bft)
04.06.2010 00:00 21,5 C 16,0 C 0,0 UV-I 0,0 C 51 % 68 % 0 % 1021,5 hPa 0,0 l/m 2,4 km/h (1 Bft) 0,00 h 1,9 km/h (1 Bft)
04.06.2010 01:00 21,2 C 14,3 C 0,0 UV-I 0,0 C 51 % 72 % 0 % 1021,8 hPa 0,0 l/m 0,0 km/h (0 Bft) 0,00 h 0,0 km/h (0 Bft)
04.06.2010 02:00 21,0 C 13,3 C 0,0 UV-I 0,0 C 51 % 76 % 0 % 1021,8 hPa 0,0 l/m 0,0 km/h (0 Bft) 0,00 h 0,1 km/h (0 Bft)
04.06.2010 03:00 20,7 C 12,2 C 0,0 UV-I 0,0 C 51 % 79 % 0 % 1021,9 hPa 0,0 l/m 0,0 km/h (0 Bft) 0,00 h 0,0 km/h (0 Bft)
04.06.2010 04:00 20,3 C 11,2 C 0,0 UV-I 0,0 C 52 % 83 % 0 % 1021,7 hPa 0,0 l/m 0,1 km/h (0 Bft) 0,00 h 0,0 km/h (0 Bft)
04.06.2010 05:00 20,1 C 10,8 C 0,0 UV-I 0,0 C 51 % 84 % 0 % 1021,6 hPa 0,0 l/m 0,1 km/h (0 Bft) 0,00 h 0,1 km/h (0 Bft)
04.06.2010 06:00 19,8 C 11,0 C 0,2 UV-I 0,0 C 52 % 84 % 0 % 1021,9 hPa 0,0 l/m 0,9 km/h (0 Bft) 0,00 h 1,2 km/h (1 Bft)
04.06.2010 07:00 19,7 C 12,6 C 1,0 UV-I 0,0 C 53 % 81 % 0 % 1022,1 hPa 0,0 l/m 3,1 km/h (1 Bft) 0,00 h 3,8 km/h (1 Bft)
04.06.2010 08:00 19,8 C 15,3 C 3,4 UV-I 5,1 C 53 % 72 % 81 % 1022,7 hPa 0,0 l/m 2,1 km/h (1 Bft) 0,70 h 3,2 km/h (1 Bft)
04.06.2010 09:00 20,2 C 17,9 C 12,5 UV-I 7,2 C 53 % 64 % 100 % 1022,9 hPa 0,0 l/m 3,2 km/h (1 Bft) 0,90 h 3,8 km/h (1 Bft)
04.06.2010 10:00 20,5 C 19,6 C 15,6 UV-I 7,1 C 53 % 61 % 100 % 1023,1 hPa 0,0 l/m 3,8 km/h (1 Bft) 0,97 h 4,2 km/h (1 Bft)
04.06.2010 11:00 20,7 C 21,2 C 12,6 UV-I 6,8 C 53 % 56 % 100 % 1022,9 hPa 0,0 l/m 4,5 km/h (1 Bft) 0,97 h 5,5 km/h (1 Bft)
04.06.2010 12:00 21,0 C 22,4 C 8,4 UV-I 5,9 C 53 % 51 % 100 % 1022,7 hPa 0,0 l/m 5,0 km/h (1 Bft) 0,80 h 6,7 km/h (2 Bft)
04.06.2010 13:00 21,5 C 23,7 C 7,8 UV-I 5,3 C 52 % 47 % 100 % 1022,9 hPa 0,0 l/m 5,2 km/h (1 Bft) 0,73 h 6,9 km/h (2 Bft)
04.06.2010 14:00 22,6 C 24,4 C 7,5 UV-I 4,5 C 50 % 43 % 100 % 1023,1 hPa 0,0 l/m 8,2 km/h (2 Bft) 0,60 h 10,3 km/h (2 Bft)
04.06.2010 15:00 24,5 C 24,9 C 8,2 UV-I 4,4 C 45 % 39 % 100 % 1024,9 hPa 0,0 l/m 9,5 km/h (2 Bft) 0,53 h 12,2 km/h (2 Bft)
04.06.2010 16:00 25,9 C 25,0 C 10,0 UV-I 4,5 C 41 % 35 % 100 % 1026,2 hPa 0,0 l/m 8,5 km/h (2 Bft) 0,45 h 9,8 km/h (2 Bft)
04.06.2010 17:00 26,4 C 25,3 C 11,8 UV-I 4,5 C 39 % 33 % 100 % 1025,5 hPa 0,0 l/m 8,0 km/h (2 Bft) 0,52 h 11,3 km/h (2 Bft)
04.06.2010 18:00 25,7 C 24,4 C 3,6 UV-I 2,6 C 39 % 34 % 62 % 1023,7 hPa 0,0 l/m 6,8 km/h (2 Bft) 0,48 h 6,8 km/h (2 Bft)
04.06.2010 19:00 24,5 C 23,9 C 1,7 UV-I 0,0 C 41 % 35 % 0 % 1022,1 hPa 0,0 l/m 7,3 km/h (2 Bft) 0,00 h 7,0 km/h (2 Bft)
04.06.2010 20:00 24,0 C 23,1 C 0,4 UV-I 0,0 C 43 % 41 % 0 % 1021,9 hPa 0,0 l/m 6,5 km/h (2 Bft) 0,00 h 5,9 km/h (2 Bft)
04.06.2010 21:00 23,5 C 21,3 C 0,0 UV-I 0,0 C 44 % 48 % 0 % 1021,9 hPa 0,0 l/m 1,0 km/h (0 Bft) 0,00 h 0,8 km/h (0 Bft)
04.06.2010 22:00 22,9 C 18,8 C 0,0 UV-I 0,0 C 46 % 57 % 0 % 1022,3 hPa 0,0 l/m 0,0 km/h (0 Bft) 0,00 h 0,0 km/h (0 Bft)
04.06.2010 23:00 22,5 C 16,6 C 0,0 UV-I 0,0 C 48 % 66 % 0 % 1022,3 hPa 0,0 l/m 0,0 km/h (0 Bft) 0,00 h 0,0 km/h (0 Bft)
05.06.2010 00:00 22,1 C 15,1 C 0,0 UV-I 0,0 C 50 % 73 % 0 % 1022,4 hPa 0,0 l/m 0,0 km/h (0 Bft) 0,00 h 0,0 km/h (0 Bft)
05.06.2010 01:00 21,8 C 13,8 C 0,0 UV-I 0,0 C 50 % 77 % 0 % 1022,5 hPa 0,0 l/m 0,0 km/h (0 Bft) 0,00 h 0,0 km/h (0 Bft)
05.06.2010 02:00 21,5 C 13,0 C 0,0 UV-I 0,0 C 51 % 81 % 0 % 1022,5 hPa 0,0 l/m 0,0 km/h (0 Bft) 0,00 h 0,0 km/h (0 Bft)
05.06.2010 03:00 21,2 C 12,1 C 0,0 UV-I 0,0 C 52 % 84 % 0 % 1022,2 hPa 0,0 l/m 0,0 km/h (0 Bft) 0,00 h 0,0 km/h (0 Bft)
05.06.2010 04:00 20,9 C 11,3 C 0,0 UV-I 0,0 C 52 % 86 % 0 % 1022,0 hPa 0,0 l/m 0,0 km/h (0 Bft) 0,00 h 0,0 km/h (0 Bft)
05.06.2010 05:00 20,6 C 10,6 C 0,0 UV-I 0,0 C 52 % 88 % 0 % 1021,6 hPa 0,0 l/m 0,0 km/h (0 Bft) 0,00 h 0,0 km/h (0 Bft)
05.06.2010 06:00 20,3 C 10,4 C 0,1 UV-I 0,0 C 52 % 90 % 0 % 1021,6 hPa 0,0 l/m 0,0 km/h (0 Bft) 0,00 h 0,0 km/h (0 Bft)
05.06.2010 07:00 20,3 C 12,2 C 0,8 UV-I 0,0 C 54 % 90 % 0 % 1021,7 hPa 0,0 l/m 0,4 km/h (0 Bft) 0,00 h 1,2 km/h (1 Bft)
05.06.2010 08:00 20,5 C 15,8 C 2,7 UV-I 5,0 C 55 % 80 % 81 % 1021,9 hPa 0,0 l/m 2,8 km/h (1 Bft) 0,77 h 4,0 km/h (1 Bft)
05.06.2010 09:00 20,8 C 20,0 C 12,2 UV-I 6,9 C 55 % 66 % 100 % 1022,1 hPa 0,0 l/m 1,7 km/h (1 Bft) 0,90 h 2,2 km/h (1 Bft)
05.06.2010 10:00 21,1 C 22,0 C 15,3 UV-I 7,4 C 54 % 56 % 100 % 1022,1 hPa 0,0 l/m 3,4 km/h (1 Bft) 0,90 h 4,6 km/h (1 Bft)
05.06.2010 11:00 21,4 C 23,6 C 12,1 UV-I 6,4 C 54 % 46 % 100 % 1021,9 hPa 0,0 l/m 6,3 km/h (2 Bft) 0,80 h 6,8 km/h (2 Bft)
05.06.2010 12:00 21,7 C 25,2 C 8,6 UV-I 6,0 C 53 % 41 % 100 % 1021,7 hPa 0,0 l/m 4,6 km/h (1 Bft) 0,67 h 6,0 km/h (2 Bft)
05.06.2010 13:00 22,2 C 26,2 C 8,5 UV-I 5,3 C 51 % 37 % 100 % 1021,4 hPa 0,0 l/m 5,6 km/h (1 Bft) 0,83 h 6,7 km/h (2 Bft)
05.06.2010 14:00 23,2 C 27,0 C 8,5 UV-I 5,1 C 48 % 31 % 100 % 1021,4 hPa 0,0 l/m 5,2 km/h (1 Bft) 0,57 h 7,2 km/h (2 Bft)
05.06.2010 15:00 24,8 C 27,8 C 9,1 UV-I 5,0 C 44 % 29 % 100 % 1022,5 hPa 0,0 l/m 4,8 km/h (1 Bft) 0,23 h 8,5 km/h (2 Bft)
05.06.2010 17:00 26,8 C 28,0 C 10,7 UV-I 4,6 C 39 % 26 % 100 % 1022,1 hPa 0,0 l/m 5,6 km/h (1 Bft) 0,37 h 7,9 km/h (2 Bft)
05.06.2010 18:00 26,2 C 27,1 C 3,3 UV-I 2,1 C 39 % 30 % 53 % 1020,9 hPa 0,0 l/m 7,0 km/h (2 Bft) 0,17 h 8,0 km/h (2 Bft)
05.06.2010 19:00 25,3 C 26,1 C 1,6 UV-I 0,0 C 42 % 34 % 0 % 1019,3 hPa 0,0 l/m 6,8 km/h (2 Bft) 0,00 h 6,2 km/h (2 Bft)
05.06.2010 20:00 24,7 C 24,8 C 0,5 UV-I 0,0 C 43 % 37 % 0 % 1019,0 hPa 0,0 l/m 3,7 km/h (1 Bft) 0,00 h 4,0 km/h (1 Bft)
05.06.2010 21:00 24,3 C 22,7 C 0,0 UV-I 0,0 C 44 % 44 % 0 % 1018,7 hPa 0,0 l/m 0,0 km/h (0 Bft) 0,00 h 0,0 km/h (0 Bft)
05.06.2010 22:00 23,7 C 20,0 C 0,0 UV-I 0,0 C 46 % 52 % 0 % 1018,6 hPa 0,0 l/m 0,0 km/h (0 Bft) 0,00 h 0,0 km/h (0 Bft)
05.06.2010 23:00 23,2 C 18,2 C 0,0 UV-I 0,0 C 47 % 60 % 0 % 1018,5 hPa 0,0 l/m 0,0 km/h (0 Bft) 0,00 h 0,0 km/h (0 Bft)
06.06.2010 00:00 22,9 C 17,0 C 0,0 UV-I 0,0 C 48 % 65 % 0 % 1018,0 hPa 0,0 l/m 0,0 km/h (0 Bft) 0,00 h 0,0 km/h (0 Bft)
06.06.2010 01:00 22,6 C 16,1 C 0,0 UV-I 0,0 C 49 % 70 % 0 % 1017,5 hPa 0,0 l/m 0,0 km/h (0 Bft) 0,00 h 0,0 km/h (0 Bft)
06.06.2010 02:00 22,4 C 15,2 C 0,0 UV-I 0,0 C 50 % 74 % 0 % 1017,0 hPa 0,0 l/m 0,0 km/h (0 Bft) 0,00 h 0,0 km/h (0 Bft)
06.06.2010 03:00 22,1 C 14,5 C 0,0 UV-I 0,0 C 51 % 78 % 0 % 1016,5 hPa 0,0 l/m 0,0 km/h (0 Bft) 0,00 h 0,0 km/h (0 Bft)
06.06.2010 04:00 21,9 C 14,0 C 0,0 UV-I 0,0 C 52 % 81 % 0 % 1015,8 hPa 0,0 l/m 0,0 km/h (0 Bft) 0,00 h 0,0 km/h (0 Bft)
06.06.2010 05:00 21,7 C 13,8 C 0,0 UV-I 0,0 C 53 % 83 % 0 % 1015,6 hPa 0,0 l/m 0,0 km/h (0 Bft) 0,00 h 0,0 km/h (0 Bft)
06.06.2010 06:00 21,6 C 14,3 C 0,3 UV-I 0,0 C 54 % 82 % 0 % 1015,3 hPa 0,0 l/m 0,2 km/h (0 Bft) 0,00 h 1,0 km/h (0 Bft)
06.06.2010 07:00 21,6 C 16,0 C 1,4 UV-I 0,4 C 54 % 79 % 11 % 1015,0 hPa 0,0 l/m 1,1 km/h (1 Bft) 0,00 h 2,7 km/h (1 Bft)
06.06.2010 08:00 21,9 C 17,7 C 2,9 UV-I 2,2 C 55 % 75 % 61 % 1014,8 hPa 0,1 l/m 2,2 km/h (1 Bft) 0,30 h 3,0 km/h (1 Bft)
06.06.2010 09:00 22,0 C 19,6 C 5,4 UV-I 3,3 C 55 % 70 % 94 % 1014,5 hPa 0,0 l/m 1,0 km/h (0 Bft) 0,83 h 1,3 km/h (1 Bft)
06.06.2010 10:00 22,2 C 23,0 C 11,1 UV-I 6,1 C 55 % 61 % 100 % 1014,1 hPa 0,0 l/m 1,7 km/h (1 Bft) 0,97 h 3,2 km/h (1 Bft)
06.06.2010 11:00 22,5 C 25,8 C 12,3 UV-I 5,9 C 54 % 51 % 100 % 1013,7 hPa 0,0 l/m 3,4 km/h (1 Bft) 0,93 h 3,7 km/h (1 Bft)
06.06.2010 12:00 22,8 C 27,7 C 9,7 UV-I 5,4 C 53 % 42 % 100 % 1013,1 hPa 0,0 l/m 3,6 km/h (1 Bft) 0,90 h 4,1 km/h (1 Bft)
06.06.2010 13:00 23,3 C 29,2 C 10,1 UV-I 5,1 C 53 % 41 % 100 % 1012,8 hPa 0,0 l/m 4,4 km/h (1 Bft) 0,80 h 5,4 km/h (1 Bft)
06.06.2010 14:00 24,2 C 28,9 C 6,2 UV-I 2,7 C 51 % 42 % 76 % 1012,9 hPa 0,0 l/m 3,3 km/h (1 Bft) 0,43 h 5,2 km/h (1 Bft)
06.06.2010 15:00 24,3 C 27,0 C 3,5 UV-I 0,7 C 51 % 47 % 20 % 1011,9 hPa 0,0 l/m 4,5 km/h (1 Bft) 0,00 h 7,3 km/h (2 Bft)
06.06.2010 16:00 24,5 C 26,4 C 3,7 UV-I 1,8 C 52 % 53 % 50 % 1012,0 hPa 0,0 l/m 2,9 km/h (1 Bft) 0,00 h 3,9 km/h (1 Bft)
06.06.2010 17:00 24,4 C 25,1 C 1,0 UV-I 0,4 C 53 % 56 % 12 % 1011,5 hPa 0,0 l/m 1,1 km/h (1 Bft) 0,00 h 1,8 km/h (1 Bft)
06.06.2010 18:00 24,3 C 24,4 C 2,1 UV-I 0,7 C 54 % 60 % 19 % 1011,1 hPa 0,0 l/m 3,1 km/h (1 Bft) 0,00 h 3,9 km/h (1 Bft)
06.06.2010 19:00 24,2 C 23,7 C 0,5 UV-I 0,1 C 55 % 61 % 3 % 1011,0 hPa 0,2 l/m 2,5 km/h (1 Bft) 0,00 h 3,2 km/h (1 Bft)
06.06.2010 20:00 23,8 C 20,1 C 0,0 UV-I 0,0 C 58 % 82 % 0 % 1011,2 hPa 1,2 l/m 5,7 km/h (1 Bft) 0,00 h 6,4 km/h (2 Bft)
06.06.2010 21:00 23,3 C 18,3 C 0,0 UV-I 0,0 C 61 % 88 % 0 % 1011,8 hPa 0,0 l/m 2,9 km/h (1 Bft) 0,00 h 3,6 km/h (1 Bft)
06.06.2010 22:00 23,0 C 17,7 C 0,0 UV-I 0,0 C 63 % 90 % 0 % 1012,3 hPa 0,0 l/m 0,0 km/h (0 Bft) 0,00 h 0,1 km/h (0 Bft)
06.06.2010 23:00 22,8 C 17,5 C 0,0 UV-I 0,0 C 64 % 91 % 0 % 1012,6 hPa 0,0 l/m 0,2 km/h (0 Bft) 0,00 h 0,4 km/h (0 Bft)
Min-Datum _ 01.06.10 31.05.10 31.05.10 31.05.10 05.06.10 05.06.10 31.05.10 31.05.10 - 31.05.10 - 31.05.10
_ Min-Zeit 07:48 01:30 00:00 00:00 17:19 17:38 00:00 03:52 - 21:24 - 00:00
Minimum _ 17,9 C 9,2 C 0,0 UV-I 0,0 C 38 % 25 % 0 % 1009,3 hPa - 0,0 km/h (0 Bft) - 0,0 km/h (0 Bft)
Max-Datum _ 05.06.10 06.06.10 05.06.10 05.06.10 31.05.10 01.06.10 31.05.10 04.06.10 31.05.10 02.06.10 31.05.10 02.06.10
_ Max-Zeit 17:38 13:50 10:08 10:56 23:36 07:06 12:34 16:52 23:10 14:00 12:28 13:20
Maximum _ 26,9 C 29,8 C 16,7 UV-I 7,9 C 66 % 96 % 100 % 1026,8 hPa 3,8 l/m 20,9 km/h
W-SW (4 Bft)
0,03 h 40,9 km/h
S (6 Bft)
Durchschnitt _ 21,0 C 17,0 C 3,2 UV-I 1,7 C 54 % 70 % 35 % 1018,7 hPa #11,6 l/m 4,0 km/h (1 Bft) #41:12 h 4,7 km/h (1 Bft)
© 2012 W. Hausmann